Terminal Aerodrome Forecast
Issued by NWS Omaha/Valley, NE

Home | Current Version | Previous Version | Graphics & Text | Print | Product List | Glossary On
Versions: 1 2 3 4 5 6 7 8 9 10 11 12 13 14 15 16 17 18
000
FTUS43 KOAX 272320
TAFOFK
TAF
KOFK 272320Z 2800/2824 10005KT P6SM BKN090
     FM280200 10005KT P6SM -SHRA OVC050
      TEMPO 2803/2807 5SM TSRA BR BKN025CB
     FM281200 34006KT P6SM OVC050=

USA.gov is the U.S. government's official web portal to all federal, state and local government web resources and services.